createdAt,value
2023-01-21T00:00:44.785Z,28.00
2023-01-21T00:13:21.450Z,31.37
2023-01-21T00:16:29.512Z,29.13
2023-01-21T00:29:27.665Z,31.57
2023-01-21T00:46:30.858Z,26.47
2023-01-21T00:58:44.028Z,28.20
2023-01-21T01:05:30.174Z,30.00
2023-01-21T01:12:03.089Z,25.07
2023-01-21T01:14:30.191Z,28.43
2023-01-21T01:17:43.613Z,28.03
2023-01-21T01:34:07.366Z,29.10
2023-01-21T01:36:43.017Z,27.10
2023-01-21T01:39:43.543Z,29.40
2023-01-21T01:42:29.342Z,27.43
2023-01-21T01:59:09.185Z,30.70
2023-01-21T02:05:19.427Z,31.40
2023-01-21T02:08:39.284Z,30.60
2023-01-21T02:11:30.674Z,31.03
2023-01-21T02:14:36.181Z,28.53
2023-01-21T02:21:15.203Z,26.20
2023-01-21T02:27:37.332Z,29.50
2023-01-21T02:42:29.300Z,31.37
2023-01-21T02:49:20.329Z,30.30
2023-01-21T03:03:35.338Z,26.77
2023-01-21T03:21:03.563Z,26.80
2023-01-21T03:51:39.440Z,30.90
2023-01-21T03:54:25.698Z,30.63
2023-01-21T04:11:25.913Z,31.93
2023-01-21T04:23:30.399Z,37.33
2023-01-21T05:20:33.438Z,29.93
2023-01-21T05:30:28.309Z,35.03
2023-01-21T05:33:28.277Z,33.90
2023-01-21T05:39:48.875Z,35.47
2023-01-21T05:42:27.053Z,31.93
2023-01-21T05:47:49.608Z,31.70
2023-01-21T05:50:34.208Z,33.90
2023-01-21T06:06:30.603Z,30.50
2023-01-21T06:09:17.321Z,31.87
2023-01-21T06:11:57.213Z,28.70
2023-01-21T06:14:44.355Z,35.63
2023-01-21T06:20:19.622Z,30.00
2023-01-21T06:22:58.712Z,32.93
2023-01-21T06:25:52.369Z,30.17
2023-01-21T06:28:34.951Z,30.57
2023-01-21T06:31:26.441Z,28.50
2023-01-21T06:34:33.268Z,33.17
2023-01-21T06:45:30.622Z,28.50
2023-01-21T06:48:01.468Z,32.83
2023-01-21T06:53:22.082Z,29.37
2023-01-21T07:02:15.000Z,26.03
2023-01-21T07:05:18.295Z,29.43
2023-01-21T07:10:40.762Z,28.10
2023-01-21T07:19:16.470Z,31.27
2023-01-21T07:21:48.701Z,29.13
2023-01-21T07:24:22.441Z,32.67
2023-01-21T07:26:49.631Z,31.03
2023-01-21T07:29:37.344Z,31.47
2023-01-21T07:32:10.996Z,30.60
2023-01-21T07:34:44.384Z,30.63
2023-01-21T07:37:16.717Z,28.27
2023-01-21T07:39:50.185Z,32.27
2023-01-21T07:42:17.220Z,31.57
2023-01-21T07:44:54.538Z,31.67
2023-01-21T07:47:25.877Z,33.07
2023-01-21T07:50:18.430Z,31.57
2023-01-21T07:52:58.083Z,30.13
2023-01-21T07:55:42.994Z,32.40
2023-01-21T07:58:19.871Z,31.57
2023-01-21T08:01:05.583Z,29.63
2023-01-21T08:03:52.391Z,30.03
2023-01-21T08:06:29.825Z,29.80
2023-01-21T08:09:08.776Z,31.10
2023-01-21T08:11:59.017Z,28.87
2023-01-21T08:14:29.611Z,29.03
2023-01-21T08:17:08.634Z,30.17
2023-01-21T08:19:35.693Z,30.07
2023-01-21T08:22:25.686Z,32.37
2023-01-21T08:25:24.727Z,32.23
2023-01-21T08:27:58.828Z,27.23
2023-01-21T08:30:32.492Z,30.00
2023-01-21T08:36:09.154Z,28.80
2023-01-21T08:42:26.201Z,27.57
2023-01-21T08:54:00.479Z,29.00
2023-01-21T08:56:34.165Z,30.40
2023-01-21T08:59:03.004Z,26.70
2023-01-21T09:01:36.283Z,29.07
2023-01-21T09:04:03.604Z,29.63
2023-01-21T09:06:44.184Z,30.03
2023-01-21T09:09:12.036Z,29.90
2023-01-21T09:11:46.314Z,32.37
2023-01-21T09:14:13.599Z,29.17
2023-01-21T09:16:47.257Z,32.83
2023-01-21T09:22:06.730Z,34.47
2023-01-21T09:27:27.412Z,31.53
2023-01-21T09:30:26.233Z,29.80
2023-01-21T09:32:53.351Z,28.43
2023-01-21T09:35:27.288Z,32.50
2023-01-21T09:38:01.172Z,31.83
2023-01-21T09:40:28.311Z,32.97
2023-01-21T09:43:02.321Z,30.77
2023-01-21T09:45:32.229Z,32.77
2023-01-21T09:48:12.192Z,31.70
2023-01-21T09:50:41.818Z,31.60
2023-01-21T09:53:33.203Z,29.13
2023-01-21T09:56:02.592Z,29.67
2023-01-21T10:02:09.269Z,30.77
2023-01-21T10:04:55.153Z,35.13
2023-01-21T10:07:38.746Z,29.40
2023-01-21T10:10:33.218Z,30.50
2023-01-21T10:13:35.389Z,32.40
2023-01-21T10:22:34.244Z,31.67
2023-01-21T10:25:22.161Z,30.10
2023-01-21T10:27:49.428Z,32.53
2023-01-21T10:31:06.251Z,31.13
2023-01-21T10:33:42.215Z,33.10
2023-01-21T10:36:32.560Z,32.90
2023-01-21T10:39:06.603Z,31.33
2023-01-21T10:42:11.235Z,30.47
2023-01-21T10:45:01.644Z,33.97
2023-01-21T10:48:17.287Z,33.57
2023-01-21T10:54:21.530Z,32.17
2023-01-21T11:00:38.762Z,29.50
2023-01-21T11:03:15.346Z,33.07
2023-01-21T11:05:50.269Z,29.17
2023-01-21T11:08:23.052Z,33.20
2023-01-21T11:11:03.196Z,30.60
2023-01-21T11:13:30.480Z,29.87
2023-01-21T11:16:06.392Z,27.47
2023-01-21T11:18:40.145Z,29.60
2023-01-21T11:21:30.243Z,29.50
2023-01-21T11:24:08.980Z,25.53
2023-01-21T11:26:43.232Z,28.87
2023-01-21T11:29:33.269Z,26.67
2023-01-21T11:32:22.628Z,28.40
2023-01-21T11:34:59.879Z,30.40
2023-01-21T11:40:25.556Z,33.10
2023-01-21T11:43:03.242Z,28.60
2023-01-21T11:45:37.660Z,28.03
2023-01-21T11:48:28.239Z,26.77
2023-01-21T11:51:20.318Z,27.10
2023-01-21T11:53:54.326Z,31.63
2023-01-21T11:56:21.472Z,27.27
2023-01-21T11:58:55.226Z,29.00
2023-01-21T12:01:25.761Z,28.70
2023-01-21T12:04:09.288Z,27.00
2023-01-21T12:06:37.759Z,30.40
2023-01-21T12:09:08.817Z,26.47
2023-01-21T12:11:42.242Z,29.07
2023-01-21T12:14:30.959Z,29.20
2023-01-21T12:20:03.260Z,33.07
2023-01-21T12:22:42.404Z,28.90
2023-01-21T12:25:21.540Z,25.37
2023-01-21T12:28:14.448Z,28.67
2023-01-21T12:38:41.297Z,27.53
2023-01-21T12:41:29.180Z,26.93
2023-01-21T12:44:33.311Z,27.00
2023-01-21T12:47:19.616Z,40.57
2023-01-21T12:50:16.340Z,51.37
2023-01-21T12:59:59.428Z,28.50
2023-01-21T13:09:34.748Z,26.47
2023-01-21T13:12:47.273Z,29.47
2023-01-21T13:15:22.274Z,27.37
2023-01-21T13:27:32.049Z,25.47
2023-01-21T13:30:27.396Z,24.30
2023-01-21T13:37:15.445Z,26.90
2023-01-21T13:40:23.626Z,27.77
2023-01-21T13:43:45.761Z,30.23
2023-01-21T13:47:06.850Z,26.63
2023-01-21T13:49:47.645Z,28.57
2023-01-21T13:52:26.305Z,41.33
2023-01-21T14:06:27.384Z,30.27
2023-01-21T14:26:17.413Z,36.57
2023-01-21T14:29:04.697Z,29.73
2023-01-21T14:42:03.357Z,29.73
2023-01-21T14:57:25.153Z,28.47
2023-01-21T15:05:45.141Z,27.07
2023-01-21T15:11:15.759Z,27.33
2023-01-21T15:16:42.391Z,25.73
2023-01-21T15:19:17.004Z,31.10
2023-01-21T15:29:24.647Z,31.23
2023-01-21T15:32:07.537Z,32.90
2023-01-21T15:34:42.722Z,35.00
2023-01-21T15:37:44.362Z,34.27
2023-01-21T15:44:03.459Z,33.27
2023-01-21T15:47:07.920Z,33.90
2023-01-21T15:57:00.598Z,33.00
2023-01-21T15:59:46.802Z,33.13
2023-01-21T16:19:00.456Z,29.83
2023-01-21T16:21:41.712Z,32.47
2023-01-21T16:24:24.730Z,32.20
2023-01-21T16:26:52.064Z,42.33
2023-01-21T16:42:51.893Z,34.93
2023-01-21T16:45:28.472Z,32.70
2023-01-21T16:48:00.958Z,28.57
2023-01-21T16:50:37.517Z,30.37
2023-01-21T16:55:57.575Z,29.47
2023-01-21T16:58:34.207Z,24.67
2023-01-21T17:04:55.645Z,27.57
2023-01-21T17:07:35.643Z,27.60
2023-01-21T17:14:15.412Z,25.13
2023-01-21T17:16:44.416Z,25.27
2023-01-21T17:19:34.369Z,28.63
2023-01-21T17:22:13.870Z,26.70
2023-01-21T17:25:29.392Z,26.43
2023-01-21T17:28:03.517Z,31.77
2023-01-21T17:30:42.836Z,32.50
2023-01-21T17:33:28.020Z,31.30
2023-01-21T17:36:31.493Z,32.97
2023-01-21T17:39:07.171Z,31.00
2023-01-21T17:44:21.160Z,29.77
2023-01-21T17:52:29.700Z,44.27
2023-01-21T17:55:14.282Z,34.03
2023-01-21T17:57:49.208Z,29.50
2023-01-21T18:06:34.475Z,28.63
2023-01-21T18:09:03.796Z,27.60
2023-01-21T18:14:23.471Z,30.73
2023-01-21T18:19:42.765Z,28.87
2023-01-21T18:22:22.911Z,29.73
2023-01-21T18:27:40.818Z,27.67
2023-01-21T18:31:06.582Z,27.77
2023-01-21T18:33:34.279Z,27.67
2023-01-21T18:36:18.712Z,28.63
2023-01-21T18:38:47.324Z,32.70
2023-01-21T18:41:16.349Z,32.23
2023-01-21T18:46:58.431Z,25.20
2023-01-21T18:49:33.173Z,29.90
2023-01-21T18:54:49.362Z,27.53
2023-01-21T18:57:28.820Z,31.13
2023-01-21T19:00:03.841Z,28.33
2023-01-21T19:02:40.006Z,27.63
2023-01-21T19:07:58.256Z,26.27
2023-01-21T19:13:10.545Z,26.90
2023-01-21T19:15:50.130Z,23.17
2023-01-21T19:18:24.619Z,25.50
2023-01-21T19:21:00.012Z,27.97
2023-01-21T19:32:36.088Z,18.73
2023-01-21T19:35:17.268Z,19.53
2023-01-21T19:37:53.138Z,19.03
2023-01-21T19:40:33.749Z,21.97
2023-01-21T19:49:34.139Z,18.63
2023-01-21T19:54:53.352Z,18.10
2023-01-21T19:57:37.556Z,20.37
2023-01-21T20:06:22.502Z,17.23
2023-01-21T20:09:01.036Z,17.77
2023-01-21T20:11:29.605Z,20.57
2023-01-21T20:14:13.029Z,18.10
2023-01-21T20:16:47.108Z,19.30
2023-01-21T20:22:17.783Z,18.97
2023-01-21T20:30:34.361Z,24.47
2023-01-21T20:36:49.721Z,18.53
2023-01-21T20:39:20.327Z,17.03
2023-01-21T20:44:35.860Z,17.23
2023-01-21T20:47:27.587Z,17.67
2023-01-21T20:57:32.539Z,15.70
2023-01-21T21:03:45.900Z,15.90
2023-01-21T21:06:41.937Z,16.23
2023-01-21T21:22:33.341Z,17.07
2023-01-21T21:25:07.310Z,16.93
2023-01-21T21:27:38.984Z,14.93
2023-01-21T21:32:54.620Z,31.03
2023-01-21T21:35:37.820Z,15.47
2023-01-21T21:42:01.955Z,15.20
2023-01-21T21:45:29.490Z,14.83
2023-01-21T21:54:16.984Z,18.10
2023-01-21T22:12:40.592Z,19.83
2023-01-21T22:15:08.572Z,17.87
2023-01-21T22:17:43.503Z,19.40
2023-01-21T22:20:13.772Z,21.33
2023-01-21T22:22:47.742Z,17.10
2023-01-21T22:25:19.972Z,17.40
2023-01-21T22:30:36.270Z,20.13
2023-01-21T22:33:44.428Z,18.23
2023-01-21T22:36:40.587Z,19.37
2023-01-21T22:39:14.098Z,18.77
2023-01-21T22:44:55.326Z,20.00
2023-01-21T22:47:31.605Z,20.40
2023-01-21T22:50:05.624Z,19.37
2023-01-21T22:52:39.576Z,21.27
2023-01-21T22:55:10.069Z,21.47
2023-01-21T22:57:43.762Z,22.13
2023-01-21T23:00:16.334Z,26.20
2023-01-21T23:02:43.386Z,21.07
2023-01-21T23:05:22.560Z,22.83
2023-01-21T23:07:56.533Z,19.53
2023-01-21T23:10:30.636Z,20.47
2023-01-21T23:12:57.583Z,19.57
2023-01-21T23:18:20.495Z,21.43
2023-01-21T23:20:53.484Z,21.90
2023-01-21T23:23:20.634Z,21.40
2023-01-21T23:25:57.485Z,24.13
2023-01-21T23:34:05.030Z,23.43
2023-01-21T23:36:38.626Z,22.63
2023-01-21T23:39:14.158Z,26.77
2023-01-21T23:44:35.095Z,29.87
2023-01-21T23:47:10.510Z,22.37
2023-01-21T23:49:37.542Z,25.13
2023-01-21T23:52:12.478Z,23.03
2023-01-21T23:55:32.010Z,25.40
2023-01-21T23:58:05.507Z,21.97
